sensor_id;sensor_type;location;lat;lon;timestamp;P1;durP1;ratioP1;P2;durP2;ratioP2
769;SDS011;368;48.698;9.116;2023-02-03T00:02:15;1.63;;;1.27;;
769;SDS011;368;48.698;9.116;2023-02-03T00:04:42;1.20;;;0.90;;
769;SDS011;368;48.698;9.116;2023-02-03T00:07:09;1.63;;;1.20;;
769;SDS011;368;48.698;9.116;2023-02-03T00:09:38;1.47;;;1.20;;
769;SDS011;368;48.698;9.116;2023-02-03T00:12:06;2.17;;;1.10;;
769;SDS011;368;48.698;9.116;2023-02-03T00:14:33;1.10;;;1.00;;
769;SDS011;368;48.698;9.116;2023-02-03T00:17:01;1.73;;;0.93;;
769;SDS011;368;48.698;9.116;2023-02-03T00:19:28;1.10;;;0.80;;
769;SDS011;368;48.698;9.116;2023-02-03T00:21:55;1.20;;;0.90;;
769;SDS011;368;48.698;9.116;2023-02-03T00:24:23;1.00;;;0.90;;
769;SDS011;368;48.698;9.116;2023-02-03T00:26:51;1.70;;;0.90;;
769;SDS011;368;48.698;9.116;2023-02-03T00:29:18;1.23;;;0.90;;
769;SDS011;368;48.698;9.116;2023-02-03T00:31:48;1.30;;;0.80;;
769;SDS011;368;48.698;9.116;2023-02-03T00:34:15;1.30;;;0.83;;
769;SDS011;368;48.698;9.116;2023-02-03T00:36:42;1.03;;;0.93;;
769;SDS011;368;48.698;9.116;2023-02-03T00:39:10;0.90;;;0.90;;
769;SDS011;368;48.698;9.116;2023-02-03T00:41:37;0.87;;;0.70;;
769;SDS011;368;48.698;9.116;2023-02-03T00:44:05;1.10;;;1.10;;
769;SDS011;368;48.698;9.116;2023-02-03T00:46:32;1.40;;;0.80;;
769;SDS011;368;48.698;9.116;2023-02-03T00:49:00;1.40;;;0.90;;
769;SDS011;368;48.698;9.116;2023-02-03T00:51:27;0.77;;;0.60;;
769;SDS011;368;48.698;9.116;2023-02-03T00:53:54;0.80;;;0.80;;
769;SDS011;368;48.698;9.116;2023-02-03T00:56:20;1.73;;;0.90;;
769;SDS011;368;48.698;9.116;2023-02-03T00:58:47;1.10;;;0.87;;
769;SDS011;368;48.698;9.116;2023-02-03T01:01:15;0.87;;;0.80;;
769;SDS011;368;48.698;9.116;2023-02-03T01:03:42;1.00;;;0.90;;
769;SDS011;368;48.698;9.116;2023-02-03T01:06:10;3.17;;;1.00;;
769;SDS011;368;48.698;9.116;2023-02-03T01:08:39;1.00;;;0.90;;
769;SDS011;368;48.698;9.116;2023-02-03T01:11:06;1.53;;;1.17;;
769;SDS011;368;48.698;9.116;2023-02-03T01:13:34;0.87;;;0.80;;
769;SDS011;368;48.698;9.116;2023-02-03T01:16:01;1.20;;;1.10;;
769;SDS011;368;48.698;9.116;2023-02-03T01:18:30;1.63;;;1.00;;
769;SDS011;368;48.698;9.116;2023-02-03T01:20:56;2.77;;;1.23;;
769;SDS011;368;48.698;9.116;2023-02-03T01:23:23;1.23;;;0.90;;
769;SDS011;368;48.698;9.116;2023-02-03T01:25:50;1.40;;;1.10;;
769;SDS011;368;48.698;9.116;2023-02-03T01:28:17;1.40;;;1.30;;
769;SDS011;368;48.698;9.116;2023-02-03T01:30:43;2.50;;;1.37;;
769;SDS011;368;48.698;9.116;2023-02-03T01:33:10;1.77;;;1.30;;
769;SDS011;368;48.698;9.116;2023-02-03T01:35:38;1.63;;;1.10;;
769;SDS011;368;48.698;9.116;2023-02-03T01:38:05;2.43;;;1.50;;
769;SDS011;368;48.698;9.116;2023-02-03T01:40:32;1.73;;;1.27;;
769;SDS011;368;48.698;9.116;2023-02-03T01:42:58;1.00;;;1.00;;
769;SDS011;368;48.698;9.116;2023-02-03T01:45:25;4.17;;;1.60;;
769;SDS011;368;48.698;9.116;2023-02-03T01:47:52;1.60;;;1.50;;
769;SDS011;368;48.698;9.116;2023-02-03T01:50:22;1.53;;;1.43;;
769;SDS011;368;48.698;9.116;2023-02-03T01:52:54;2.57;;;1.90;;
769;SDS011;368;48.698;9.116;2023-02-03T01:55:30;1.80;;;1.67;;
769;SDS011;368;48.698;9.116;2023-02-03T01:58:00;1.83;;;1.73;;
769;SDS011;368;48.698;9.116;2023-02-03T02:00:30;1.63;;;1.50;;
769;SDS011;368;48.698;9.116;2023-02-03T02:02:57;2.47;;;1.53;;
769;SDS011;368;48.698;9.116;2023-02-03T02:05:26;1.60;;;1.33;;
769;SDS011;368;48.698;9.116;2023-02-03T02:07:59;1.70;;;1.60;;
769;SDS011;368;48.698;9.116;2023-02-03T02:10:27;2.33;;;1.60;;
769;SDS011;368;48.698;9.116;2023-02-03T02:12:55;1.93;;;1.73;;
769;SDS011;368;48.698;9.116;2023-02-03T02:15:24;1.67;;;1.57;;
769;SDS011;368;48.698;9.116;2023-02-03T02:18:05;1.80;;;1.70;;
769;SDS011;368;48.698;9.116;2023-02-03T02:26:50;3.40;;;1.73;;
769;SDS011;368;48.698;9.116;2023-02-03T02:29:34;2.23;;;2.00;;
769;SDS011;368;48.698;9.116;2023-02-03T02:32:28;1.90;;;1.80;;
769;SDS011;368;48.698;9.116;2023-02-03T02:35:06;1.47;;;1.30;;
769;SDS011;368;48.698;9.116;2023-02-03T02:37:43;2.03;;;1.60;;
769;SDS011;368;48.698;9.116;2023-02-03T02:40:16;1.77;;;1.67;;
769;SDS011;368;48.698;9.116;2023-02-03T02:42:51;1.77;;;1.67;;
769;SDS011;368;48.698;9.116;2023-02-03T02:45:27;2.13;;;1.87;;
769;SDS011;368;48.698;9.116;2023-02-03T02:48:01;2.90;;;1.90;;
769;SDS011;368;48.698;9.116;2023-02-03T02:50:35;2.07;;;1.80;;
769;SDS011;368;48.698;9.116;2023-02-03T02:53:05;2.60;;;1.90;;
769;SDS011;368;48.698;9.116;2023-02-03T02:55:33;2.20;;;1.80;;
769;SDS011;368;48.698;9.116;2023-02-03T02:58:04;2.00;;;1.70;;
769;SDS011;368;48.698;9.116;2023-02-03T03:00:35;2.40;;;2.20;;
769;SDS011;368;48.698;9.116;2023-02-03T03:03:09;2.03;;;1.83;;
769;SDS011;368;48.698;9.116;2023-02-03T03:05:40;2.43;;;1.90;;
769;SDS011;368;48.698;9.116;2023-02-03T03:08:11;2.17;;;1.90;;
769;SDS011;368;48.698;9.116;2023-02-03T03:10:41;1.53;;;1.43;;
769;SDS011;368;48.698;9.116;2023-02-03T03:13:11;1.60;;;1.50;;
769;SDS011;368;48.698;9.116;2023-02-03T03:15:41;2.60;;;1.50;;
769;SDS011;368;48.698;9.116;2023-02-03T03:18:12;1.33;;;1.23;;
769;SDS011;368;48.698;9.116;2023-02-03T03:20:42;2.37;;;1.20;;
769;SDS011;368;48.698;9.116;2023-02-03T03:23:13;1.57;;;1.47;;
769;SDS011;368;48.698;9.116;2023-02-03T03:25:45;1.80;;;1.50;;
769;SDS011;368;48.698;9.116;2023-02-03T03:28:19;3.60;;;1.77;;
769;SDS011;368;48.698;9.116;2023-02-03T03:30:50;1.87;;;1.77;;
769;SDS011;368;48.698;9.116;2023-02-03T03:33:19;2.20;;;1.80;;
769;SDS011;368;48.698;9.116;2023-02-03T03:35:48;1.70;;;1.40;;
769;SDS011;368;48.698;9.116;2023-02-03T03:38:22;4.63;;;1.40;;
769;SDS011;368;48.698;9.116;2023-02-03T03:40:58;2.50;;;1.70;;
769;SDS011;368;48.698;9.116;2023-02-03T03:43:29;2.47;;;2.27;;
769;SDS011;368;48.698;9.116;2023-02-03T03:45:59;2.97;;;1.60;;
769;SDS011;368;48.698;9.116;2023-02-03T03:48:35;2.77;;;1.60;;
769;SDS011;368;48.698;9.116;2023-02-03T03:51:12;1.33;;;1.23;;
769;SDS011;368;48.698;9.116;2023-02-03T03:53:43;2.40;;;1.73;;
769;SDS011;368;48.698;9.116;2023-02-03T03:56:14;1.33;;;1.23;;
769;SDS011;368;48.698;9.116;2023-02-03T03:58:44;2.20;;;1.47;;
769;SDS011;368;48.698;9.116;2023-02-03T04:01:14;2.20;;;1.30;;
769;SDS011;368;48.698;9.116;2023-02-03T04:03:43;1.50;;;1.30;;
769;SDS011;368;48.698;9.116;2023-02-03T04:06:13;1.40;;;1.30;;
769;SDS011;368;48.698;9.116;2023-02-03T04:08:40;3.10;;;1.73;;
769;SDS011;368;48.698;9.116;2023-02-03T04:11:07;4.50;;;2.60;;
769;SDS011;368;48.698;9.116;2023-02-03T04:13:34;2.23;;;2.03;;
769;SDS011;368;48.698;9.116;2023-02-03T04:16:00;3.37;;;1.57;;
769;SDS011;368;48.698;9.116;2023-02-03T04:18:27;4.33;;;1.70;;
769;SDS011;368;48.698;9.116;2023-02-03T04:20:55;3.10;;;1.63;;
769;SDS011;368;48.698;9.116;2023-02-03T04:23:22;2.13;;;1.80;;
769;SDS011;368;48.698;9.116;2023-02-03T04:25:49;2.10;;;1.70;;
769;SDS011;368;48.698;9.116;2023-02-03T04:28:16;2.70;;;1.80;;
769;SDS011;368;48.698;9.116;2023-02-03T04:30:42;9.23;;;5.80;;
769;SDS011;368;48.698;9.116;2023-02-03T04:33:09;5.93;;;3.67;;
769;SDS011;368;48.698;9.116;2023-02-03T04:35:36;4.67;;;3.07;;
769;SDS011;368;48.698;9.116;2023-02-03T04:38:04;3.40;;;2.03;;
769;SDS011;368;48.698;9.116;2023-02-03T04:40:31;1.80;;;1.70;;
769;SDS011;368;48.698;9.116;2023-02-03T04:42:58;1.60;;;1.50;;
769;SDS011;368;48.698;9.116;2023-02-03T04:45:30;4.70;;;1.83;;
769;SDS011;368;48.698;9.116;2023-02-03T04:47:57;2.77;;;1.70;;
769;SDS011;368;48.698;9.116;2023-02-03T04:50:23;1.67;;;1.40;;
769;SDS011;368;48.698;9.116;2023-02-03T04:52:50;1.80;;;1.40;;
769;SDS011;368;48.698;9.116;2023-02-03T04:55:18;1.53;;;1.37;;
769;SDS011;368;48.698;9.116;2023-02-03T04:57:45;1.57;;;1.47;;
769;SDS011;368;48.698;9.116;2023-02-03T05:00:12;1.57;;;1.47;;
769;SDS011;368;48.698;9.116;2023-02-03T05:02:39;1.83;;;1.63;;
769;SDS011;368;48.698;9.116;2023-02-03T05:05:06;2.17;;;1.77;;
769;SDS011;368;48.698;9.116;2023-02-03T05:07:33;1.57;;;1.33;;
769;SDS011;368;48.698;9.116;2023-02-03T05:10:00;1.40;;;1.30;;
769;SDS011;368;48.698;9.116;2023-02-03T05:12:28;1.90;;;1.70;;
769;SDS011;368;48.698;9.116;2023-02-03T05:14:55;3.30;;;1.40;;
769;SDS011;368;48.698;9.116;2023-02-03T05:17:22;2.90;;;1.60;;
769;SDS011;368;48.698;9.116;2023-02-03T05:19:49;1.00;;;1.00;;
769;SDS011;368;48.698;9.116;2023-02-03T05:22:16;1.70;;;1.43;;
769;SDS011;368;48.698;9.116;2023-02-03T05:24:42;0.80;;;0.80;;
769;SDS011;368;48.698;9.116;2023-02-03T05:27:09;1.33;;;1.20;;
769;SDS011;368;48.698;9.116;2023-02-03T05:29:37;1.53;;;1.17;;
769;SDS011;368;48.698;9.116;2023-02-03T05:32:04;2.10;;;1.33;;
769;SDS011;368;48.698;9.116;2023-02-03T05:34:31;1.17;;;1.07;;
769;SDS011;368;48.698;9.116;2023-02-03T05:36:57;1.43;;;1.00;;
769;SDS011;368;48.698;9.116;2023-02-03T05:39:24;2.07;;;1.27;;
769;SDS011;368;48.698;9.116;2023-02-03T05:41:51;1.37;;;1.17;;
769;SDS011;368;48.698;9.116;2023-02-03T05:44:17;1.57;;;1.47;;
769;SDS011;368;48.698;9.116;2023-02-03T05:46:45;1.20;;;1.10;;
769;SDS011;368;48.698;9.116;2023-02-03T05:49:13;2.20;;;1.10;;
769;SDS011;368;48.698;9.116;2023-02-03T05:51:39;1.27;;;1.00;;
769;SDS011;368;48.698;9.116;2023-02-03T05:54:06;1.17;;;0.93;;
769;SDS011;368;48.698;9.116;2023-02-03T05:56:33;1.93;;;1.20;;
769;SDS011;368;48.698;9.116;2023-02-03T05:59:00;1.00;;;0.93;;
769;SDS011;368;48.698;9.116;2023-02-03T06:01:27;1.40;;;0.90;;
769;SDS011;368;48.698;9.116;2023-02-03T06:03:55;2.13;;;1.20;;
769;SDS011;368;48.698;9.116;2023-02-03T06:06:22;1.40;;;1.23;;
769;SDS011;368;48.698;9.116;2023-02-03T06:08:49;1.37;;;1.17;;
769;SDS011;368;48.698;9.116;2023-02-03T06:11:20;1.30;;;1.20;;
769;SDS011;368;48.698;9.116;2023-02-03T06:13:48;1.07;;;0.97;;
769;SDS011;368;48.698;9.116;2023-02-03T06:16:15;2.10;;;1.70;;
769;SDS011;368;48.698;9.116;2023-02-03T06:18:42;1.50;;;1.40;;
769;SDS011;368;48.698;9.116;2023-02-03T06:21:10;2.20;;;1.60;;
769;SDS011;368;48.698;9.116;2023-02-03T06:23:37;1.57;;;1.47;;
769;SDS011;368;48.698;9.116;2023-02-03T06:26:04;2.07;;;1.30;;
769;SDS011;368;48.698;9.116;2023-02-03T06:28:31;1.80;;;1.70;;
769;SDS011;368;48.698;9.116;2023-02-03T06:30:58;1.40;;;1.30;;
769;SDS011;368;48.698;9.116;2023-02-03T06:33:25;2.70;;;1.90;;
769;SDS011;368;48.698;9.116;2023-02-03T06:35:52;1.43;;;1.30;;
769;SDS011;368;48.698;9.116;2023-02-03T06:38:20;3.03;;;1.30;;
769;SDS011;368;48.698;9.116;2023-02-03T06:40:48;2.17;;;1.57;;
769;SDS011;368;48.698;9.116;2023-02-03T06:43:15;1.70;;;1.20;;
769;SDS011;368;48.698;9.116;2023-02-03T06:45:43;1.93;;;1.80;;
769;SDS011;368;48.698;9.116;2023-02-03T06:48:11;2.23;;;1.83;;
769;SDS011;368;48.698;9.116;2023-02-03T06:50:38;1.63;;;1.17;;
769;SDS011;368;48.698;9.116;2023-02-03T06:53:05;1.30;;;1.20;;
769;SDS011;368;48.698;9.116;2023-02-03T06:55:34;1.50;;;1.40;;
769;SDS011;368;48.698;9.116;2023-02-03T06:58:00;2.00;;;1.53;;
769;SDS011;368;48.698;9.116;2023-02-03T07:00:27;1.23;;;1.13;;
769;SDS011;368;48.698;9.116;2023-02-03T07:02:54;2.10;;;1.30;;
769;SDS011;368;48.698;9.116;2023-02-03T07:05:22;2.30;;;1.60;;
769;SDS011;368;48.698;9.116;2023-02-03T07:07:49;1.70;;;1.10;;
769;SDS011;368;48.698;9.116;2023-02-03T07:10:17;10.50;;;2.40;;
769;SDS011;368;48.698;9.116;2023-02-03T07:12:45;2.47;;;1.73;;
769;SDS011;368;48.698;9.116;2023-02-03T07:15:12;2.43;;;1.93;;
769;SDS011;368;48.698;9.116;2023-02-03T07:17:39;3.17;;;2.50;;
769;SDS011;368;48.698;9.116;2023-02-03T07:20:06;1.60;;;1.50;;
769;SDS011;368;48.698;9.116;2023-02-03T07:22:33;2.13;;;1.80;;
769;SDS011;368;48.698;9.116;2023-02-03T07:25:00;2.27;;;2.13;;
769;SDS011;368;48.698;9.116;2023-02-03T07:27:27;2.70;;;2.47;;
769;SDS011;368;48.698;9.116;2023-02-03T07:29:55;2.13;;;2.03;;
769;SDS011;368;48.698;9.116;2023-02-03T07:32:22;2.60;;;2.40;;
769;SDS011;368;48.698;9.116;2023-02-03T07:34:48;1.97;;;1.87;;
769;SDS011;368;48.698;9.116;2023-02-03T07:37:15;2.40;;;2.20;;
769;SDS011;368;48.698;9.116;2023-02-03T07:39:42;3.17;;;2.57;;
769;SDS011;368;48.698;9.116;2023-02-03T07:42:10;8.87;;;2.67;;
769;SDS011;368;48.698;9.116;2023-02-03T07:44:36;2.30;;;2.10;;
769;SDS011;368;48.698;9.116;2023-02-03T07:47:05;3.47;;;2.67;;
769;SDS011;368;48.698;9.116;2023-02-03T07:49:31;4.70;;;3.60;;
769;SDS011;368;48.698;9.116;2023-02-03T07:51:58;3.37;;;2.57;;
769;SDS011;368;48.698;9.116;2023-02-03T07:54:25;3.47;;;3.17;;
769;SDS011;368;48.698;9.116;2023-02-03T07:56:52;6.10;;;3.30;;
769;SDS011;368;48.698;9.116;2023-02-03T07:59:19;4.40;;;4.00;;
769;SDS011;368;48.698;9.116;2023-02-03T08:01:45;4.00;;;3.60;;
769;SDS011;368;48.698;9.116;2023-02-03T08:04:14;4.80;;;3.53;;
769;SDS011;368;48.698;9.116;2023-02-03T08:06:41;3.13;;;2.90;;
769;SDS011;368;48.698;9.116;2023-02-03T08:09:08;4.07;;;3.53;;
769;SDS011;368;48.698;9.116;2023-02-03T08:11:35;6.23;;;3.47;;
769;SDS011;368;48.698;9.116;2023-02-03T08:14:01;8.57;;;3.53;;
769;SDS011;368;48.698;9.116;2023-02-03T08:16:28;5.63;;;3.13;;
769;SDS011;368;48.698;9.116;2023-02-03T08:18:55;3.13;;;2.83;;
769;SDS011;368;48.698;9.116;2023-02-03T08:21:23;4.37;;;3.33;;
769;SDS011;368;48.698;9.116;2023-02-03T08:23:50;4.60;;;3.67;;
769;SDS011;368;48.698;9.116;2023-02-03T08:26:17;4.60;;;2.87;;
769;SDS011;368;48.698;9.116;2023-02-03T08:28:47;3.60;;;3.30;;
769;SDS011;368;48.698;9.116;2023-02-03T08:31:14;6.27;;;4.33;;
769;SDS011;368;48.698;9.116;2023-02-03T08:33:41;3.90;;;3.60;;
769;SDS011;368;48.698;9.116;2023-02-03T08:36:08;4.10;;;3.57;;
769;SDS011;368;48.698;9.116;2023-02-03T08:38:38;3.20;;;2.90;;
769;SDS011;368;48.698;9.116;2023-02-03T08:41:08;5.57;;;4.17;;
769;SDS011;368;48.698;9.116;2023-02-03T08:43:36;5.53;;;5.10;;
769;SDS011;368;48.698;9.116;2023-02-03T08:46:04;3.10;;;2.80;;
769;SDS011;368;48.698;9.116;2023-02-03T08:48:31;3.67;;;3.27;;
769;SDS011;368;48.698;9.116;2023-02-03T08:50:58;5.87;;;2.90;;
769;SDS011;368;48.698;9.116;2023-02-03T08:53:25;3.43;;;2.93;;
769;SDS011;368;48.698;9.116;2023-02-03T08:55:53;3.90;;;2.47;;
769;SDS011;368;48.698;9.116;2023-02-03T08:58:20;16.90;;;9.03;;
769;SDS011;368;48.698;9.116;2023-02-03T09:00:47;16.27;;;8.87;;
769;SDS011;368;48.698;9.116;2023-02-03T09:03:17;9.10;;;6.90;;
769;SDS011;368;48.698;9.116;2023-02-03T09:05:44;3.03;;;2.57;;
769;SDS011;368;48.698;9.116;2023-02-03T09:08:10;3.87;;;2.80;;
769;SDS011;368;48.698;9.116;2023-02-03T09:10:37;3.53;;;2.97;;
769;SDS011;368;48.698;9.116;2023-02-03T09:13:05;2.87;;;2.63;;
769;SDS011;368;48.698;9.116;2023-02-03T09:15:32;3.33;;;2.03;;
769;SDS011;368;48.698;9.116;2023-02-03T09:17:59;3.57;;;2.17;;
769;SDS011;368;48.698;9.116;2023-02-03T09:20:25;5.87;;;2.73;;
769;SDS011;368;48.698;9.116;2023-02-03T09:22:52;2.57;;;2.37;;
769;SDS011;368;48.698;9.116;2023-02-03T09:25:19;4.83;;;3.30;;
769;SDS011;368;48.698;9.116;2023-02-03T09:27:46;3.50;;;2.90;;
769;SDS011;368;48.698;9.116;2023-02-03T09:30:15;3.80;;;3.20;;
769;SDS011;368;48.698;9.116;2023-02-03T09:32:42;5.77;;;2.47;;
769;SDS011;368;48.698;9.116;2023-02-03T09:35:13;3.23;;;2.23;;
769;SDS011;368;48.698;9.116;2023-02-03T09:37:40;2.70;;;2.50;;
769;SDS011;368;48.698;9.116;2023-02-03T09:40:08;3.63;;;2.73;;
769;SDS011;368;48.698;9.116;2023-02-03T09:42:48;1.83;;;1.70;;
769;SDS011;368;48.698;9.116;2023-02-03T09:45:29;2.67;;;2.10;;
769;SDS011;368;48.698;9.116;2023-02-03T09:47:57;2.73;;;2.53;;
769;SDS011;368;48.698;9.116;2023-02-03T09:50:31;3.70;;;3.40;;
769;SDS011;368;48.698;9.116;2023-02-03T09:53:00;5.10;;;2.10;;
769;SDS011;368;48.698;9.116;2023-02-03T09:55:32;2.27;;;2.07;;
769;SDS011;368;48.698;9.116;2023-02-03T09:58:03;1.93;;;1.80;;
769;SDS011;368;48.698;9.116;2023-02-03T10:00:34;2.60;;;2.33;;
769;SDS011;368;48.698;9.116;2023-02-03T10:03:06;2.40;;;2.20;;
769;SDS011;368;48.698;9.116;2023-02-03T10:05:43;2.60;;;2.40;;
769;SDS011;368;48.698;9.116;2023-02-03T10:08:21;1.93;;;1.30;;
769;SDS011;368;48.698;9.116;2023-02-03T10:11:03;2.03;;;1.60;;
769;SDS011;368;48.698;9.116;2023-02-03T10:13:39;2.77;;;1.70;;
769;SDS011;368;48.698;9.116;2023-02-03T10:16:22;2.20;;;1.60;;
769;SDS011;368;48.698;9.116;2023-02-03T10:19:06;2.70;;;1.40;;
769;SDS011;368;48.698;9.116;2023-02-03T10:21:37;2.10;;;1.50;;
769;SDS011;368;48.698;9.116;2023-02-03T10:24:08;2.63;;;1.10;;
769;SDS011;368;48.698;9.116;2023-02-03T10:26:38;2.50;;;2.23;;
769;SDS011;368;48.698;9.116;2023-02-03T10:29:05;8.87;;;5.40;;
769;SDS011;368;48.698;9.116;2023-02-03T10:31:43;5.77;;;4.10;;
769;SDS011;368;48.698;9.116;2023-02-03T10:34:11;2.43;;;1.90;;
769;SDS011;368;48.698;9.116;2023-02-03T10:36:47;1.97;;;1.50;;
769;SDS011;368;48.698;9.116;2023-02-03T10:39:20;1.30;;;1.20;;
769;SDS011;368;48.698;9.116;2023-02-03T10:41:54;1.70;;;1.60;;
769;SDS011;368;48.698;9.116;2023-02-03T10:44:22;1.80;;;1.33;;
769;SDS011;368;48.698;9.116;2023-02-03T10:46:53;1.00;;;1.00;;
769;SDS011;368;48.698;9.116;2023-02-03T10:49:20;1.23;;;1.00;;
769;SDS011;368;48.698;9.116;2023-02-03T10:51:47;1.93;;;1.30;;
769;SDS011;368;48.698;9.116;2023-02-03T10:54:26;1.87;;;1.17;;
769;SDS011;368;48.698;9.116;2023-02-03T10:56:57;1.40;;;1.10;;
769;SDS011;368;48.698;9.116;2023-02-03T10:59:30;2.33;;;1.40;;
769;SDS011;368;48.698;9.116;2023-02-03T11:02:00;1.70;;;1.20;;
769;SDS011;368;48.698;9.116;2023-02-03T11:04:33;0.93;;;0.93;;
769;SDS011;368;48.698;9.116;2023-02-03T11:07:00;2.93;;;1.10;;
769;SDS011;368;48.698;9.116;2023-02-03T11:09:30;1.00;;;1.00;;
769;SDS011;368;48.698;9.116;2023-02-03T11:12:05;0.50;;;0.50;;
769;SDS011;368;48.698;9.116;2023-02-03T11:14:37;1.17;;;0.63;;
769;SDS011;368;48.698;9.116;2023-02-03T11:17:08;1.80;;;1.70;;
769;SDS011;368;48.698;9.116;2023-02-03T11:19:42;3.77;;;0.77;;
769;SDS011;368;48.698;9.116;2023-02-03T11:22:10;2.00;;;0.70;;
769;SDS011;368;48.698;9.116;2023-02-03T11:24:38;0.90;;;0.70;;
769;SDS011;368;48.698;9.116;2023-02-03T11:27:08;0.50;;;0.50;;
769;SDS011;368;48.698;9.116;2023-02-03T11:29:39;1.10;;;1.00;;
769;SDS011;368;48.698;9.116;2023-02-03T11:32:14;0.87;;;0.60;;
769;SDS011;368;48.698;9.116;2023-02-03T11:34:45;1.30;;;0.50;;
769;SDS011;368;48.698;9.116;2023-02-03T11:37:26;0.63;;;0.47;;
769;SDS011;368;48.698;9.116;2023-02-03T11:39:55;1.30;;;0.50;;
769;SDS011;368;48.698;9.116;2023-02-03T11:42:22;1.47;;;1.20;;
769;SDS011;368;48.698;9.116;2023-02-03T11:44:49;0.90;;;0.70;;
769;SDS011;368;48.698;9.116;2023-02-03T11:47:18;0.60;;;0.50;;
769;SDS011;368;48.698;9.116;2023-02-03T11:49:52;1.20;;;0.80;;
769;SDS011;368;48.698;9.116;2023-02-03T11:52:53;2.53;;;0.80;;
769;SDS011;368;48.698;9.116;2023-02-03T11:55:32;0.77;;;0.77;;
769;SDS011;368;48.698;9.116;2023-02-03T11:58:33;0.57;;;0.50;;
769;SDS011;368;48.698;9.116;2023-02-03T12:01:21;0.73;;;0.60;;
769;SDS011;368;48.698;9.116;2023-02-03T12:07:07;0.70;;;0.70;;
769;SDS011;368;48.698;9.116;2023-02-03T12:09:50;1.30;;;0.90;;
769;SDS011;368;48.698;9.116;2023-02-03T12:12:30;0.50;;;0.50;;
769;SDS011;368;48.698;9.116;2023-02-03T12:15:08;0.80;;;0.50;;
769;SDS011;368;48.698;9.116;2023-02-03T12:17:57;0.67;;;0.57;;
769;SDS011;368;48.698;9.116;2023-02-03T12:20:39;1.77;;;0.90;;
769;SDS011;368;48.698;9.116;2023-02-03T12:23:16;1.90;;;0.60;;
769;SDS011;368;48.698;9.116;2023-02-03T12:25:58;2.60;;;0.83;;
769;SDS011;368;48.698;9.116;2023-02-03T12:28:41;0.80;;;0.53;;
769;SDS011;368;48.698;9.116;2023-02-03T12:31:13;0.40;;;0.40;;
769;SDS011;368;48.698;9.116;2023-02-03T12:33:45;1.07;;;0.60;;
769;SDS011;368;48.698;9.116;2023-02-03T12:36:17;0.90;;;0.60;;
769;SDS011;368;48.698;9.116;2023-02-03T12:38:51;1.90;;;1.03;;
769;SDS011;368;48.698;9.116;2023-02-03T12:41:24;0.53;;;0.53;;
769;SDS011;368;48.698;9.116;2023-02-03T12:43:56;2.00;;;0.70;;
769;SDS011;368;48.698;9.116;2023-02-03T12:46:25;0.70;;;0.70;;
769;SDS011;368;48.698;9.116;2023-02-03T12:48:55;1.33;;;0.93;;
769;SDS011;368;48.698;9.116;2023-02-03T12:51:32;1.50;;;0.87;;
769;SDS011;368;48.698;9.116;2023-02-03T12:54:05;3.20;;;1.80;;
769;SDS011;368;48.698;9.116;2023-02-03T12:56:38;1.03;;;1.03;;
769;SDS011;368;48.698;9.116;2023-02-03T12:59:10;0.80;;;0.60;;
769;SDS011;368;48.698;9.116;2023-02-03T13:01:41;0.80;;;0.80;;
769;SDS011;368;48.698;9.116;2023-02-03T13:04:14;1.70;;;1.53;;
769;SDS011;368;48.698;9.116;2023-02-03T13:06:51;0.80;;;0.80;;
769;SDS011;368;48.698;9.116;2023-02-03T13:09:24;1.90;;;0.90;;
769;SDS011;368;48.698;9.116;2023-02-03T13:11:58;1.27;;;0.80;;
769;SDS011;368;48.698;9.116;2023-02-03T13:14:30;0.57;;;0.57;;
769;SDS011;368;48.698;9.116;2023-02-03T13:17:02;1.27;;;0.90;;
769;SDS011;368;48.698;9.116;2023-02-03T13:19:36;0.80;;;0.80;;
769;SDS011;368;48.698;9.116;2023-02-03T13:22:12;0.90;;;0.90;;
769;SDS011;368;48.698;9.116;2023-02-03T13:24:40;0.90;;;0.70;;
769;SDS011;368;48.698;9.116;2023-02-03T13:27:22;1.83;;;0.60;;
769;SDS011;368;48.698;9.116;2023-02-03T13:30:02;0.50;;;0.40;;
769;SDS011;368;48.698;9.116;2023-02-03T13:33:10;0.70;;;0.63;;
769;SDS011;368;48.698;9.116;2023-02-03T13:36:10;0.80;;;0.60;;
769;SDS011;368;48.698;9.116;2023-02-03T13:39:11;0.80;;;0.60;;
769;SDS011;368;48.698;9.116;2023-02-03T13:41:55;0.80;;;0.70;;
769;SDS011;368;48.698;9.116;2023-02-03T13:44:33;0.83;;;0.70;;
769;SDS011;368;48.698;9.116;2023-02-03T13:47:02;0.80;;;0.50;;
769;SDS011;368;48.698;9.116;2023-02-03T13:49:30;0.90;;;0.90;;
769;SDS011;368;48.698;9.116;2023-02-03T13:51:59;0.90;;;0.80;;
769;SDS011;368;48.698;9.116;2023-02-03T13:54:29;1.00;;;0.90;;
769;SDS011;368;48.698;9.116;2023-02-03T13:57:00;0.73;;;0.70;;
769;SDS011;368;48.698;9.116;2023-02-03T13:59:38;1.67;;;1.00;;
769;SDS011;368;48.698;9.116;2023-02-03T14:20:33;0.60;;;0.50;;
769;SDS011;368;48.698;9.116;2023-02-03T14:26:14;1.13;;;1.03;;
769;SDS011;368;48.698;9.116;2023-02-03T14:28:47;0.63;;;0.63;;
769;SDS011;368;48.698;9.116;2023-02-03T14:31:18;0.60;;;0.60;;
769;SDS011;368;48.698;9.116;2023-02-03T14:33:49;0.97;;;0.70;;
769;SDS011;368;48.698;9.116;2023-02-03T14:36:26;0.60;;;0.60;;
769;SDS011;368;48.698;9.116;2023-02-03T14:39:00;1.43;;;0.77;;
769;SDS011;368;48.698;9.116;2023-02-03T14:41:33;1.67;;;1.10;;
769;SDS011;368;48.698;9.116;2023-02-03T14:44:15;0.80;;;0.77;;
769;SDS011;368;48.698;9.116;2023-02-03T14:52:37;1.23;;;1.13;;
769;SDS011;368;48.698;9.116;2023-02-03T14:55:23;3.30;;;1.53;;
769;SDS011;368;48.698;9.116;2023-02-03T14:58:00;1.40;;;0.90;;
769;SDS011;368;48.698;9.116;2023-02-03T15:00:32;2.50;;;0.83;;
769;SDS011;368;48.698;9.116;2023-02-03T15:03:15;1.80;;;0.90;;
769;SDS011;368;48.698;9.116;2023-02-03T15:05:46;0.60;;;0.60;;
769;SDS011;368;48.698;9.116;2023-02-03T15:11:21;1.33;;;1.00;;
769;SDS011;368;48.698;9.116;2023-02-03T15:13:53;1.23;;;0.80;;
769;SDS011;368;48.698;9.116;2023-02-03T15:16:23;1.03;;;0.90;;
769;SDS011;368;48.698;9.116;2023-02-03T15:18:59;1.67;;;0.90;;
769;SDS011;368;48.698;9.116;2023-02-03T15:21:32;2.40;;;1.87;;
769;SDS011;368;48.698;9.116;2023-02-03T15:24:09;3.43;;;2.60;;
769;SDS011;368;48.698;9.116;2023-02-03T15:26:44;5.60;;;3.43;;
769;SDS011;368;48.698;9.116;2023-02-03T15:29:18;3.17;;;2.43;;
769;SDS011;368;48.698;9.116;2023-02-03T15:31:48;2.50;;;1.50;;
769;SDS011;368;48.698;9.116;2023-02-03T15:34:21;1.50;;;1.30;;
769;SDS011;368;48.698;9.116;2023-02-03T15:36:53;0.93;;;0.57;;
769;SDS011;368;48.698;9.116;2023-02-03T15:39:26;2.20;;;2.10;;
769;SDS011;368;48.698;9.116;2023-02-03T15:41:59;2.03;;;1.77;;
769;SDS011;368;48.698;9.116;2023-02-03T15:44:29;1.43;;;1.20;;
769;SDS011;368;48.698;9.116;2023-02-03T15:47:00;1.03;;;1.00;;
769;SDS011;368;48.698;9.116;2023-02-03T15:49:32;1.50;;;1.40;;
769;SDS011;368;48.698;9.116;2023-02-03T15:52:06;4.77;;;4.37;;
769;SDS011;368;48.698;9.116;2023-02-03T15:54:36;0.70;;;0.70;;
769;SDS011;368;48.698;9.116;2023-02-03T15:57:07;0.70;;;0.70;;
769;SDS011;368;48.698;9.116;2023-02-03T15:59:40;1.30;;;1.20;;
769;SDS011;368;48.698;9.116;2023-02-03T16:02:13;1.77;;;1.40;;
769;SDS011;368;48.698;9.116;2023-02-03T16:04:42;0.80;;;0.80;;
769;SDS011;368;48.698;9.116;2023-02-03T16:07:12;1.90;;;1.57;;
769;SDS011;368;48.698;9.116;2023-02-03T16:09:43;1.13;;;1.03;;
769;SDS011;368;48.698;9.116;2023-02-03T16:12:16;2.07;;;1.80;;
769;SDS011;368;48.698;9.116;2023-02-03T16:14:47;1.67;;;1.20;;
769;SDS011;368;48.698;9.116;2023-02-03T16:20:16;3.67;;;3.37;;
769;SDS011;368;48.698;9.116;2023-02-03T16:22:58;0.83;;;0.80;;
769;SDS011;368;48.698;9.116;2023-02-03T16:25:29;1.07;;;1.07;;
769;SDS011;368;48.698;9.116;2023-02-03T16:27:57;1.90;;;1.70;;
769;SDS011;368;48.698;9.116;2023-02-03T16:30:50;1.80;;;1.70;;
769;SDS011;368;48.698;9.116;2023-02-03T16:33:36;1.47;;;1.00;;
769;SDS011;368;48.698;9.116;2023-02-03T16:36:22;1.87;;;1.30;;
769;SDS011;368;48.698;9.116;2023-02-03T16:39:09;1.27;;;1.17;;
769;SDS011;368;48.698;9.116;2023-02-03T16:41:54;3.30;;;2.87;;
769;SDS011;368;48.698;9.116;2023-02-03T16:44:40;4.10;;;3.70;;
769;SDS011;368;48.698;9.116;2023-02-03T16:47:25;1.10;;;0.93;;
769;SDS011;368;48.698;9.116;2023-02-03T16:50:12;1.20;;;1.10;;
769;SDS011;368;48.698;9.116;2023-02-03T16:52:58;3.23;;;2.80;;